createdAt,value
2019-03-19T00:00:58.477Z,11.10
2019-03-19T00:02:00.423Z,12.10
2019-03-19T00:02:59.513Z,9.60
2019-03-19T00:04:00.859Z,10.50
2019-03-19T00:04:59.226Z,10.50
2019-03-19T00:06:03.356Z,10.90
2019-03-19T00:07:26.386Z,13.80
2019-03-19T00:08:00.718Z,12.00
2019-03-19T00:09:02.391Z,11.80
2019-03-19T00:10:03.857Z,10.50
2019-03-19T00:11:03.855Z,12.00
2019-03-19T00:12:00.237Z,13.40
2019-03-19T00:13:03.810Z,10.10
2019-03-19T00:14:03.842Z,12.90
2019-03-19T00:15:00.662Z,11.30
2019-03-19T00:16:00.854Z,12.60
2019-03-19T00:17:05.809Z,14.90
2019-03-19T00:18:02.860Z,13.10
2019-03-19T00:19:09.355Z,11.70
2019-03-19T00:20:04.302Z,13.30
2019-03-19T00:21:03.315Z,13.70
2019-03-19T00:22:03.910Z,14.10
2019-03-19T00:23:06.837Z,13.70
2019-03-19T00:24:06.814Z,11.60
2019-03-19T00:25:02.291Z,12.20
2019-03-19T00:26:04.813Z,15.20
2019-03-19T00:27:03.653Z,12.10
2019-03-19T00:28:09.409Z,14.90
2019-03-19T00:29:05.205Z,12.10
2019-03-19T00:30:06.306Z,13.80
2019-03-19T00:31:04.320Z,11.40
2019-03-19T00:32:11.373Z,12.70
2019-03-19T00:33:03.578Z,12.60
2019-03-19T00:34:04.801Z,11.80
2019-03-19T00:35:19.867Z,13.30
2019-03-19T00:36:25.217Z,15.50
2019-03-19T00:37:19.857Z,13.20
2019-03-19T00:38:06.805Z,13.20
2019-03-19T00:39:09.322Z,14.40
2019-03-19T00:40:05.663Z,12.50
2019-03-19T00:41:06.815Z,12.50
2019-03-19T00:42:06.810Z,15.00
2019-03-19T00:43:07.293Z,14.50
2019-03-19T00:44:06.878Z,15.60
2019-03-19T00:45:08.348Z,12.20
2019-03-19T00:46:07.731Z,12.20
2019-03-19T00:47:07.819Z,13.90
2019-03-19T00:48:12.856Z,17.60
2019-03-19T00:49:07.907Z,13.10
2019-03-19T00:50:09.858Z,12.70
2019-03-19T00:51:08.381Z,14.40
2019-03-19T00:52:08.365Z,16.00
2019-03-19T00:53:08.858Z,13.60
2019-03-19T00:54:08.894Z,14.50
2019-03-19T00:55:10.860Z,15.60
2019-03-19T00:56:10.870Z,15.20
2019-03-19T00:57:09.350Z,14.20
2019-03-19T00:58:10.318Z,15.30
2019-03-19T00:59:11.375Z,15.10
2019-03-19T01:00:08.973Z,16.40
2019-03-19T01:01:29.188Z,13.70
2019-03-19T01:02:08.382Z,13.20
2019-03-19T01:03:09.333Z,13.20
2019-03-19T01:04:09.810Z,14.40
2019-03-19T01:05:29.937Z,13.70
2019-03-19T01:06:12.305Z,15.20
2019-03-19T01:07:10.270Z,14.80
2019-03-19T01:08:09.474Z,13.90
2019-03-19T01:09:34.357Z,14.50
2019-03-19T01:10:13.363Z,17.00
2019-03-19T01:11:11.818Z,13.40
2019-03-19T01:12:11.908Z,15.80
2019-03-19T01:13:12.352Z,14.60
2019-03-19T01:14:10.548Z,16.20
2019-03-19T01:15:12.386Z,13.80
2019-03-19T01:16:15.307Z,12.90
2019-03-19T01:17:13.856Z,11.50
2019-03-19T01:18:11.259Z,13.30
2019-03-19T01:19:13.393Z,15.60
2019-03-19T01:20:11.614Z,15.60
2019-03-19T01:21:15.697Z,18.00
2019-03-19T01:22:11.917Z,14.90
2019-03-19T01:23:14.815Z,16.90
2019-03-19T01:24:14.821Z,13.70
2019-03-19T01:25:12.400Z,16.70
2019-03-19T01:26:14.355Z,16.10
2019-03-19T01:27:16.363Z,16.60
2019-03-19T01:28:13.934Z,15.50
2019-03-19T01:29:18.348Z,13.70
2019-03-19T01:30:15.899Z,13.20
2019-03-19T01:31:29.368Z,13.10
2019-03-19T01:32:15.568Z,17.50
2019-03-19T01:33:13.905Z,14.10
2019-03-19T01:34:15.852Z,11.50
2019-03-19T01:35:15.873Z,10.80
2019-03-19T01:36:15.366Z,17.70
2019-03-19T01:37:18.360Z,15.00
2019-03-19T01:38:16.402Z,14.70
2019-03-19T01:39:22.356Z,14.10
2019-03-19T01:40:14.912Z,15.10
2019-03-19T01:41:15.151Z,15.80
2019-03-19T01:42:22.900Z,14.20
2019-03-19T01:43:18.326Z,15.40
2019-03-19T01:44:17.350Z,13.40
2019-03-19T01:45:19.352Z,15.10
2019-03-19T01:46:22.902Z,14.90
2019-03-19T01:47:16.813Z,13.80
2019-03-19T01:48:32.356Z,13.30
2019-03-19T01:49:17.335Z,16.80
2019-03-19T01:50:39.351Z,16.00
2019-03-19T01:51:42.825Z,14.00
2019-03-19T01:52:19.806Z,14.90
2019-03-19T01:53:18.853Z,15.30
2019-03-19T01:54:17.280Z,12.30
2019-03-19T01:55:19.417Z,14.50
2019-03-19T01:56:19.383Z,16.50
2019-03-19T01:57:18.863Z,15.40
2019-03-19T01:58:18.831Z,18.80
2019-03-19T01:59:18.166Z,17.90
2019-03-19T02:00:20.349Z,14.70
2019-03-19T02:01:19.560Z,16.20
2019-03-19T02:02:20.345Z,14.40
2019-03-19T02:03:20.875Z,15.60
2019-03-19T02:04:19.046Z,15.60
2019-03-19T02:05:26.862Z,15.10
2019-03-19T02:06:21.638Z,17.60
2019-03-19T02:07:21.849Z,16.10
2019-03-19T02:08:26.363Z,14.40
2019-03-19T02:09:21.855Z,14.40
2019-03-19T02:10:21.888Z,13.90
2019-03-19T02:11:27.854Z,15.90
2019-03-19T02:12:22.349Z,13.30
2019-03-19T02:13:22.355Z,15.10
2019-03-19T02:14:22.353Z,14.60
2019-03-19T02:15:22.799Z,15.20
2019-03-19T02:16:36.854Z,14.00
2019-03-19T02:17:21.177Z,14.60
2019-03-19T02:18:29.195Z,18.80
2019-03-19T02:19:24.805Z,13.70
2019-03-19T02:20:23.373Z,15.70
2019-03-19T02:21:23.359Z,14.70
2019-03-19T02:22:35.334Z,19.40
2019-03-19T02:23:22.811Z,15.90
2019-03-19T02:24:37.852Z,17.40
2019-03-19T02:25:45.704Z,15.00
2019-03-19T02:26:27.310Z,16.40
2019-03-19T02:27:26.358Z,15.60
2019-03-19T02:28:22.799Z,18.60
2019-03-19T02:29:26.308Z,14.90
2019-03-19T02:30:23.870Z,17.60
2019-03-19T02:31:26.899Z,18.00
2019-03-19T02:32:25.355Z,18.80
2019-03-19T02:33:25.426Z,17.00
2019-03-19T02:34:23.894Z,16.50
2019-03-19T02:35:26.807Z,20.00
2019-03-19T02:36:24.316Z,15.60
2019-03-19T02:37:27.862Z,14.10
2019-03-19T02:38:27.337Z,14.20
2019-03-19T02:39:24.919Z,16.20
2019-03-19T02:40:25.191Z,15.20
2019-03-19T02:41:26.879Z,13.20
2019-03-19T02:42:29.376Z,17.20
2019-03-19T02:43:25.889Z,16.80
2019-03-19T02:44:27.428Z,18.10
2019-03-19T02:45:27.860Z,16.80
2019-03-19T02:46:35.307Z,19.20
2019-03-19T02:47:28.353Z,16.20
2019-03-19T02:48:28.350Z,15.40
2019-03-19T02:49:28.351Z,15.50
2019-03-19T02:50:26.845Z,17.10
2019-03-19T02:51:28.854Z,15.00
2019-03-19T02:52:28.853Z,15.00
2019-03-19T02:53:29.694Z,15.90
2019-03-19T02:54:27.429Z,17.50
2019-03-19T02:55:35.304Z,17.50
2019-03-19T02:56:32.969Z,15.90
2019-03-19T02:59:01.621Z,17.30
2019-03-19T03:00:01.062Z,16.90
2019-03-19T03:01:00.296Z,19.00
2019-03-19T03:02:16.132Z,18.40
2019-03-19T03:03:02.144Z,15.50
2019-03-19T03:04:02.645Z,16.70
2019-03-19T03:05:16.645Z,18.20
2019-03-19T03:06:01.589Z,17.60
2019-03-19T03:07:01.195Z,18.30
2019-03-19T03:08:03.108Z,18.20
2019-03-19T03:09:01.511Z,17.00
2019-03-19T03:10:05.606Z,18.80
2019-03-19T03:11:04.011Z,17.50
2019-03-19T03:12:03.654Z,19.20
2019-03-19T03:13:02.657Z,20.40
2019-03-19T03:14:06.073Z,17.30
2019-03-19T03:15:02.407Z,18.40
2019-03-19T03:16:05.562Z,18.50
2019-03-19T03:17:02.812Z,17.10
2019-03-19T03:18:24.079Z,20.10
2019-03-19T03:19:04.617Z,19.40
2019-03-19T03:20:03.196Z,20.10
2019-03-19T03:21:05.119Z,19.10
2019-03-19T03:22:04.853Z,19.40
2019-03-19T03:23:05.621Z,16.80
2019-03-19T03:24:04.594Z,18.80
2019-03-19T03:25:04.082Z,18.20
2019-03-19T03:26:27.063Z,19.70
2019-03-19T03:27:04.699Z,19.30
2019-03-19T03:28:05.081Z,18.60
2019-03-19T03:29:06.608Z,18.20
2019-03-19T03:30:05.845Z,18.90
2019-03-19T03:31:11.614Z,21.10
2019-03-19T03:32:06.100Z,17.10
2019-03-19T03:33:12.159Z,18.10
2019-03-19T03:34:08.072Z,20.10
2019-03-19T03:35:12.626Z,17.70
2019-03-19T03:36:05.786Z,19.00
2019-03-19T03:37:07.629Z,19.20
2019-03-19T03:38:07.606Z,20.30
2019-03-19T03:39:10.523Z,19.30
2019-03-19T03:40:09.985Z,19.40
2019-03-19T03:41:07.872Z,20.80
2019-03-19T03:42:08.631Z,20.00
2019-03-19T03:43:10.607Z,19.10
2019-03-19T03:44:09.054Z,18.10
2019-03-19T03:45:07.515Z,17.50
2019-03-19T03:46:11.618Z,20.70
2019-03-19T03:47:07.816Z,18.70
2019-03-19T03:48:09.648Z,19.40
2019-03-19T03:49:08.243Z,18.10
2019-03-19T03:50:11.560Z,19.70
2019-03-19T03:51:32.564Z,18.70
2019-03-19T03:52:31.662Z,18.00
2019-03-19T03:53:10.801Z,19.10
2019-03-19T03:54:11.147Z,16.60
2019-03-19T03:55:10.069Z,19.10
2019-03-19T03:56:11.153Z,18.60
2019-03-19T03:57:11.578Z,19.60
2019-03-19T03:58:17.605Z,21.20
2019-03-19T03:59:16.610Z,18.50
2019-03-19T04:00:32.606Z,21.70
2019-03-19T04:01:12.128Z,20.40
2019-03-19T04:02:12.108Z,20.30
2019-03-19T04:03:12.107Z,19.70
2019-03-19T04:04:12.077Z,21.20
2019-03-19T04:05:12.569Z,20.30
2019-03-19T04:06:12.621Z,20.50
2019-03-19T04:07:20.083Z,21.40
2019-03-19T04:08:48.157Z,19.40
2019-03-19T04:09:17.112Z,21.60
2019-03-19T04:11:49.070Z,18.20
2019-03-19T04:12:48.045Z,20.10
2019-03-19T04:13:43.673Z,19.40
2019-03-19T04:14:46.976Z,22.00
2019-03-19T04:15:52.842Z,17.70
2019-03-19T04:16:48.114Z,23.40
2019-03-19T04:17:46.079Z,19.80
2019-03-19T04:18:45.071Z,18.20
2019-03-19T04:19:45.538Z,21.90
2019-03-19T04:20:46.834Z,20.30
2019-03-19T04:21:46.003Z,21.00
2019-03-19T04:22:45.080Z,20.90
2019-03-19T04:23:46.283Z,18.90
2019-03-19T04:24:49.080Z,20.30
2019-03-19T04:25:49.579Z,23.20
2019-03-19T04:26:46.864Z,16.40
2019-03-19T04:27:46.947Z,18.20
2019-03-19T04:28:49.896Z,22.40
2019-03-19T04:29:48.077Z,21.60
2019-03-19T04:30:46.395Z,20.10
2019-03-19T04:31:50.576Z,23.70
2019-03-19T04:32:47.535Z,19.50
2019-03-19T04:33:48.246Z,18.90
2019-03-19T04:34:48.136Z,17.50
2019-03-19T04:35:49.107Z,19.80
2019-03-19T04:36:50.067Z,21.20
2019-03-19T04:37:49.081Z,18.60
2019-03-19T04:38:50.538Z,18.70
2019-03-19T04:39:47.985Z,22.70
2019-03-19T04:40:49.819Z,20.80
2019-03-19T04:41:56.083Z,19.40
2019-03-19T04:42:50.034Z,20.60
2019-03-19T04:43:48.626Z,21.60
2019-03-19T04:44:50.613Z,21.40
2019-03-19T04:45:49.147Z,21.30
2019-03-19T04:47:05.081Z,20.50
2019-03-19T04:47:51.260Z,22.10
2019-03-19T04:48:54.038Z,21.90
2019-03-19T04:49:51.634Z,23.40
2019-03-19T04:51:12.584Z,22.70
2019-03-19T04:51:52.533Z,22.50
2019-03-19T04:52:54.623Z,21.90
2019-03-19T04:53:54.077Z,20.80
2019-03-19T04:54:58.090Z,25.80
2019-03-19T04:55:54.081Z,24.00
2019-03-19T04:57:06.580Z,24.50
2019-03-19T04:57:55.539Z,21.50
2019-03-19T04:58:58.079Z,23.20
2019-03-19T05:00:07.164Z,24.70
2019-03-19T05:00:53.533Z,23.90
2019-03-19T05:01:55.578Z,24.50
2019-03-19T05:02:52.080Z,24.80
2019-03-19T05:04:07.584Z,23.60
2019-03-19T05:04:53.784Z,22.60
2019-03-19T05:05:53.251Z,20.90
2019-03-19T05:06:55.037Z,19.80
2019-03-19T05:07:52.501Z,22.50
2019-03-19T05:09:00.597Z,23.30
2019-03-19T05:09:52.923Z,22.80
2019-03-19T05:10:53.134Z,21.40
2019-03-19T05:11:53.343Z,21.80
2019-03-19T05:12:54.541Z,22.90
2019-03-19T05:13:55.610Z,22.00
2019-03-19T05:14:53.948Z,21.50
2019-03-19T05:15:56.087Z,22.10
2019-03-19T05:16:55.299Z,19.90
2019-03-19T05:17:56.087Z,21.80
2019-03-19T05:18:59.203Z,20.90
2019-03-19T05:19:57.572Z,22.70
2019-03-19T05:20:56.581Z,23.20
2019-03-19T05:22:11.545Z,19.80
2019-03-19T05:22:58.047Z,21.00
2019-03-19T05:23:58.067Z,21.00
2019-03-19T05:24:57.197Z,21.20
2019-03-19T05:25:59.596Z,22.70
2019-03-19T05:26:59.578Z,21.60
2019-03-19T05:27:59.035Z,22.90
2019-03-19T05:28:56.124Z,22.50
2019-03-19T05:30:19.091Z,21.60
2019-03-19T05:31:01.035Z,22.70
2019-03-19T05:32:02.603Z,20.00
2019-03-19T05:32:58.576Z,22.80
2019-03-19T05:33:58.037Z,20.90
2019-03-19T05:35:00.170Z,19.60
2019-03-19T05:36:00.037Z,23.40
2019-03-19T05:37:00.036Z,21.50
2019-03-19T05:37:57.631Z,24.20
2019-03-19T05:39:01.576Z,22.70
2019-03-19T05:39:58.021Z,19.50
2019-03-19T05:41:00.080Z,19.20
2019-03-19T05:42:00.386Z,21.40
2019-03-19T05:43:03.468Z,21.50
2019-03-19T05:44:00.573Z,20.20
2019-03-19T05:44:59.918Z,23.80
2019-03-19T05:46:00.591Z,20.70
2019-03-19T05:47:15.081Z,23.90
2019-03-19T05:48:01.086Z,19.70
2019-03-19T05:49:01.867Z,21.60
2019-03-19T05:50:00.652Z,22.00
2019-03-19T05:51:32.690Z,20.90
2019-03-19T05:52:05.044Z,19.90
2019-03-19T05:52:59.982Z,26.20
2019-03-19T05:54:00.129Z,21.80
2019-03-19T05:55:04.083Z,24.20
2019-03-19T05:56:01.532Z,21.30
2019-03-19T05:57:02.586Z,22.50
2019-03-19T05:58:04.571Z,22.40
2019-03-19T05:59:02.574Z,20.60
2019-03-19T06:00:02.588Z,23.70
2019-03-19T06:01:03.091Z,23.30
2019-03-19T06:02:04.089Z,21.20
2019-03-19T06:03:02.209Z,22.80
2019-03-19T06:04:01.541Z,18.40
2019-03-19T06:05:06.682Z,25.90
2019-03-19T06:06:04.074Z,22.20
2019-03-19T06:07:04.180Z,19.80
2019-03-19T06:08:06.071Z,20.30
2019-03-19T06:09:06.814Z,22.40
2019-03-19T06:10:04.088Z,22.10
2019-03-19T06:11:05.522Z,21.70
2019-03-19T06:12:07.250Z,20.40
2019-03-19T06:13:03.181Z,21.60
2019-03-19T06:14:04.048Z,21.50
2019-03-19T06:15:04.511Z,18.70
2019-03-19T06:16:11.606Z,18.80
2019-03-19T06:17:04.519Z,16.60
2019-03-19T06:18:06.474Z,18.10
2019-03-19T06:19:06.075Z,19.30
2019-03-19T06:20:06.088Z,20.70
2019-03-19T06:21:06.073Z,22.00
2019-03-19T06:22:08.604Z,20.80
2019-03-19T06:23:06.581Z,21.00
2019-03-19T06:24:09.544Z,20.00
2019-03-19T06:25:08.046Z,21.80
2019-03-19T06:26:05.378Z,17.40
2019-03-19T06:27:08.273Z,23.70
2019-03-19T06:28:07.592Z,17.70
2019-03-19T06:29:07.578Z,20.20
2019-03-19T06:30:09.578Z,20.50
2019-03-19T06:31:06.166Z,18.70
2019-03-19T06:32:10.078Z,19.30
2019-03-19T06:33:10.074Z,17.30
2019-03-19T06:34:08.583Z,16.90
2019-03-19T06:35:07.768Z,21.00
2019-03-19T06:36:08.620Z,16.90
2019-03-19T06:37:09.073Z,19.70
2019-03-19T06:38:11.631Z,17.90
2019-03-19T06:39:07.548Z,18.20
2019-03-19T06:40:11.573Z,18.40
2019-03-19T06:41:09.574Z,19.90
2019-03-19T06:42:09.573Z,20.60
2019-03-19T06:43:25.044Z,23.30
2019-03-19T06:44:09.255Z,24.60
2019-03-19T06:45:10.103Z,22.30
2019-03-19T06:46:12.570Z,25.60
2019-03-19T06:47:08.897Z,23.40
2019-03-19T06:48:11.102Z,21.10
2019-03-19T06:49:11.086Z,21.30
2019-03-19T06:50:09.413Z,21.00
2019-03-19T06:51:11.572Z,18.90
2019-03-19T06:52:19.034Z,58.50
2019-03-19T06:53:11.157Z,16.40
2019-03-19T06:54:16.222Z,15.60
2019-03-19T06:55:12.099Z,14.40
2019-03-19T06:56:14.934Z,14.60
2019-03-19T06:57:10.767Z,13.50
2019-03-19T06:58:11.484Z,11.90
2019-03-19T06:59:13.076Z,11.60
2019-03-19T07:00:13.087Z,13.10
2019-03-19T07:01:11.433Z,11.80
2019-03-19T07:02:11.644Z,10.40
2019-03-19T07:03:11.866Z,11.80
2019-03-19T07:04:13.619Z,9.60
2019-03-19T07:05:14.078Z,10.20
2019-03-19T07:06:16.070Z,8.20
2019-03-19T07:07:13.720Z,9.50
2019-03-19T07:08:12.694Z,8.90
2019-03-19T07:09:12.896Z,8.80
2019-03-19T07:10:15.075Z,9.40
2019-03-19T07:11:13.301Z,9.30
2019-03-19T07:12:13.401Z,8.80
2019-03-19T07:13:13.611Z,10.10
2019-03-19T07:14:13.826Z,11.20
2019-03-19T07:15:14.064Z,9.20
2019-03-19T07:16:14.249Z,10.10
2019-03-19T07:17:14.463Z,9.40
2019-03-19T07:18:18.582Z,9.40
2019-03-19T07:19:16.575Z,8.70
2019-03-19T07:20:18.626Z,9.20
2019-03-19T07:21:15.098Z,8.50
2019-03-19T07:22:15.346Z,8.40
2019-03-19T07:23:17.086Z,7.70
2019-03-19T07:24:15.573Z,8.40
2019-03-19T07:25:15.677Z,7.70
2019-03-19T07:26:18.713Z,8.00
2019-03-19T07:27:19.071Z,8.50
2019-03-19T07:33:17.289Z,9.00
2019-03-19T07:34:02.428Z,7.40
2019-03-19T07:35:00.987Z,8.90
2019-03-19T07:36:00.407Z,8.00
2019-03-19T07:37:02.923Z,8.00
2019-03-19T07:38:11.694Z,6.30
2019-03-19T07:39:06.462Z,6.70
2019-03-19T07:40:01.462Z,8.90
2019-03-19T07:41:04.226Z,8.20
2019-03-19T07:42:03.775Z,8.00
2019-03-19T07:44:47.552Z,9.20
2019-03-19T07:45:39.427Z,7.50
2019-03-19T07:46:36.943Z,6.80
2019-03-19T07:47:36.580Z,6.40
2019-03-19T07:48:38.058Z,7.40
2019-03-19T07:49:55.055Z,8.40
2019-03-19T07:50:34.970Z,6.70
2019-03-19T07:54:08.110Z,6.70
2019-03-19T07:55:06.572Z,6.30
2019-03-19T07:56:28.033Z,8.00
2019-03-19T07:58:08.774Z,8.70
2019-03-19T07:59:19.147Z,8.50
2019-03-19T08:00:09.097Z,7.70
2019-03-19T08:01:08.413Z,7.80
2019-03-19T08:02:10.608Z,9.40
2019-03-19T08:03:15.954Z,6.70
2019-03-19T08:04:09.349Z,7.70
2019-03-19T08:05:09.765Z,7.90
2019-03-19T08:06:11.626Z,7.50
2019-03-19T08:07:29.036Z,7.10
2019-03-19T08:08:08.161Z,8.70
2019-03-19T08:09:09.077Z,9.80
2019-03-19T08:10:10.153Z,8.60
2019-03-19T08:11:13.016Z,8.00
2019-03-19T08:12:10.657Z,7.70
2019-03-19T08:13:10.653Z,6.70
2019-03-19T08:14:09.828Z,7.80
2019-03-19T08:15:11.057Z,6.90
2019-03-19T08:16:13.105Z,6.60
2019-03-19T08:17:11.611Z,8.00
2019-03-19T08:18:25.606Z,9.20
2019-03-19T08:19:13.605Z,8.70
2019-03-19T08:20:10.199Z,9.70
2019-03-19T08:21:12.135Z,8.80
2019-03-19T08:22:12.112Z,7.90
2019-03-19T08:23:10.827Z,8.70
2019-03-19T08:24:12.289Z,8.80
2019-03-19T08:25:15.320Z,9.40
2019-03-19T08:26:11.530Z,9.10
2019-03-19T08:27:11.696Z,7.90
2019-03-19T08:28:12.988Z,7.30
2019-03-19T08:29:12.328Z,10.00
2019-03-19T08:30:17.132Z,8.90
2019-03-19T08:31:12.409Z,7.70
2019-03-19T08:32:15.128Z,7.20
2019-03-19T08:33:14.642Z,7.80
2019-03-19T08:34:16.831Z,7.30
2019-03-19T08:35:15.184Z,7.90
2019-03-19T08:36:13.493Z,7.70
2019-03-19T08:37:15.521Z,9.40
2019-03-19T08:38:13.745Z,7.70
2019-03-19T08:39:17.680Z,8.00
2019-03-19T08:40:30.120Z,7.10
2019-03-19T08:41:16.171Z,8.20
2019-03-19T08:42:14.730Z,9.60
2019-03-19T08:43:15.799Z,7.10
2019-03-19T08:44:27.302Z,8.90
2019-03-19T08:45:16.637Z,8.60
2019-03-19T08:46:17.115Z,8.90
2019-03-19T08:47:17.119Z,7.40
2019-03-19T08:48:15.719Z,8.40
2019-03-19T08:49:17.850Z,7.00
2019-03-19T08:50:24.519Z,7.60
2019-03-19T08:51:18.111Z,9.10
2019-03-19T08:52:23.119Z,7.20
2019-03-19T08:53:38.727Z,7.60
2019-03-19T08:54:20.637Z,8.10
2019-03-19T08:55:19.107Z,8.60
2019-03-19T08:56:21.112Z,9.10
2019-03-19T08:57:21.113Z,9.10
2019-03-19T08:58:21.064Z,8.80
2019-03-19T08:59:17.914Z,10.10
2019-03-19T09:00:23.148Z,9.30
2019-03-19T09:01:20.063Z,9.10
2019-03-19T09:02:18.564Z,8.50
2019-03-19T09:03:20.626Z,8.70
2019-03-19T09:04:23.337Z,8.10
2019-03-19T09:05:26.620Z,8.80
2019-03-19T09:06:20.611Z,8.90
2019-03-19T09:07:23.160Z,9.70
2019-03-19T09:08:27.113Z,9.50
2019-03-19T09:09:21.642Z,10.20
2019-03-19T09:10:24.044Z,8.70
2019-03-19T09:11:21.671Z,8.40
2019-03-19T09:12:23.133Z,9.10
2019-03-19T09:13:20.426Z,8.90
2019-03-19T09:14:20.652Z,8.70
2019-03-19T09:15:20.752Z,8.50
2019-03-19T09:16:20.982Z,7.50
2019-03-19T09:17:23.119Z,9.00
2019-03-19T09:18:22.761Z,9.90
2019-03-19T09:19:23.122Z,8.50
2019-03-19T09:20:22.713Z,8.40
2019-03-19T09:21:26.675Z,8.60
2019-03-19T09:22:30.127Z,8.50
2019-03-19T09:23:26.128Z,8.80
2019-03-19T09:24:26.138Z,6.90
2019-03-19T09:25:25.665Z,8.70
2019-03-19T09:26:24.836Z,6.10
2019-03-19T09:27:45.773Z,8.00
2019-03-19T09:28:25.270Z,6.60
2019-03-19T09:29:25.388Z,6.40
2019-03-19T09:30:27.359Z,5.90
2019-03-19T09:31:24.790Z,5.90
2019-03-19T09:32:25.709Z,5.50
2019-03-19T09:33:28.115Z,6.40
2019-03-19T09:34:24.344Z,5.60
2019-03-19T09:35:28.116Z,6.20
2019-03-19T09:36:27.082Z,6.80
2019-03-19T09:37:57.849Z,5.80
2019-03-19T09:38:28.649Z,5.10
2019-03-19T09:39:27.307Z,5.40
2019-03-19T09:40:25.434Z,5.00
2019-03-19T09:41:31.704Z,7.40
2019-03-19T09:42:29.659Z,6.20
2019-03-19T09:43:26.043Z,6.60
2019-03-19T09:44:28.119Z,6.40
2019-03-19T09:45:27.470Z,6.90
2019-03-19T09:46:31.147Z,6.20
2019-03-19T09:47:28.633Z,6.90
2019-03-19T09:48:35.616Z,6.70
2019-03-19T09:49:28.575Z,7.40
2019-03-19T09:50:27.488Z,6.40
2019-03-19T09:51:29.120Z,7.10
2019-03-19T09:52:29.623Z,5.60
2019-03-19T09:53:29.617Z,5.40
2019-03-19T09:54:29.072Z,6.80
2019-03-19T09:57:01.951Z,6.80
2019-03-19T09:58:04.048Z,5.60
2019-03-19T09:59:03.946Z,7.30
2019-03-19T10:00:02.448Z,5.10
2019-03-19T10:01:04.396Z,5.00
2019-03-19T10:02:01.786Z,5.70
2019-03-19T10:03:04.421Z,6.90
2019-03-19T10:04:04.008Z,5.50
2019-03-19T10:05:01.515Z,4.00
2019-03-19T10:06:13.643Z,5.90
2019-03-19T10:07:06.188Z,5.90
2019-03-19T10:08:03.453Z,4.80
2019-03-19T10:09:02.225Z,5.30
2019-03-19T10:10:03.492Z,5.00
2019-03-19T10:11:05.423Z,6.70
2019-03-19T10:12:02.810Z,4.90
2019-03-19T10:13:07.017Z,5.40
2019-03-19T10:14:03.269Z,6.20
2019-03-19T10:15:27.949Z,5.70
2019-03-19T10:16:04.540Z,7.50
2019-03-19T10:17:03.713Z,5.60
2019-03-19T10:18:05.442Z,6.50
2019-03-19T10:19:04.206Z,5.50
2019-03-19T10:20:06.955Z,4.90
2019-03-19T10:21:07.951Z,5.10
2019-03-19T10:22:04.675Z,6.50
2019-03-19T10:23:05.982Z,6.50
2019-03-19T10:24:06.955Z,5.70
2019-03-19T10:25:20.954Z,5.00
2019-03-19T10:26:08.411Z,6.00
2019-03-19T10:27:13.621Z,6.80
2019-03-19T10:28:09.505Z,7.50
2019-03-19T10:29:11.984Z,5.80
2019-03-19T10:30:06.203Z,8.00
2019-03-19T10:31:07.517Z,6.40
2019-03-19T10:32:13.506Z,8.00
2019-03-19T10:33:11.418Z,6.90
2019-03-19T10:34:08.952Z,5.80
2019-03-19T10:35:07.223Z,7.80
2019-03-19T10:36:14.965Z,7.60
2019-03-19T10:37:07.573Z,5.50
2019-03-19T10:38:07.799Z,5.80
2019-03-19T10:39:09.023Z,7.10
2019-03-19T10:40:08.125Z,6.60
2019-03-19T10:41:09.954Z,5.90
2019-03-19T10:42:08.583Z,4.70
2019-03-19T10:43:08.774Z,5.40
2019-03-19T10:44:08.987Z,5.50
2019-03-19T10:45:10.973Z,4.30
2019-03-19T10:46:09.443Z,5.80
2019-03-19T10:47:11.454Z,5.90
2019-03-19T10:48:09.801Z,6.50
2019-03-19T10:49:10.019Z,5.10
2019-03-19T10:50:12.105Z,5.50
2019-03-19T10:51:12.236Z,4.90
2019-03-19T10:52:26.451Z,6.60
2019-03-19T10:53:13.069Z,4.00
2019-03-19T10:54:10.987Z,5.80
2019-03-19T10:55:18.953Z,5.00
2019-03-19T10:56:16.450Z,4.80
2019-03-19T10:57:12.963Z,6.10
2019-03-19T10:58:13.527Z,5.50
2019-03-19T10:59:13.418Z,4.50
2019-03-19T11:00:15.460Z,5.80
2019-03-19T11:01:12.049Z,5.30
2019-03-19T11:02:13.539Z,5.40
2019-03-19T11:03:15.425Z,6.00
2019-03-19T11:04:15.436Z,4.60
2019-03-19T11:05:14.688Z,4.70
2019-03-19T11:06:15.979Z,5.40
2019-03-19T11:07:15.287Z,4.90
2019-03-19T11:08:13.391Z,5.90
2019-03-19T11:09:14.457Z,4.90
2019-03-19T11:10:13.831Z,6.00
2019-03-19T11:11:14.045Z,4.80
2019-03-19T11:12:16.005Z,5.40
2019-03-19T11:13:17.010Z,4.90
2019-03-19T11:14:18.430Z,4.80
2019-03-19T11:15:16.457Z,5.00
2019-03-19T11:16:16.489Z,3.80
2019-03-19T11:17:15.127Z,5.30
2019-03-19T11:18:16.965Z,5.50
2019-03-19T11:19:18.968Z,3.70
2019-03-19T11:20:16.717Z,4.10
2019-03-19T11:21:17.467Z,4.20
2019-03-19T11:22:18.909Z,3.70
2019-03-19T11:23:18.500Z,5.00
2019-03-19T11:24:24.750Z,4.40
2019-03-19T11:25:17.897Z,4.20
2019-03-19T11:26:20.959Z,4.70
2019-03-19T11:27:18.966Z,5.80
2019-03-19T11:28:22.975Z,5.40
2019-03-19T11:29:21.461Z,5.00
2019-03-19T11:30:19.498Z,5.10
2019-03-19T11:31:21.911Z,5.60
2019-03-19T11:32:18.194Z,5.30
2019-03-19T11:33:22.068Z,5.00
2019-03-19T11:34:22.458Z,4.00
2019-03-19T11:35:23.465Z,5.80
2019-03-19T11:36:20.416Z,4.60
2019-03-19T11:37:20.966Z,5.00
2019-03-19T11:38:19.402Z,5.30
2019-03-19T11:39:24.420Z,5.30
2019-03-19T11:40:20.355Z,6.20
2019-03-19T11:41:21.054Z,5.00
2019-03-19T11:42:22.911Z,4.40
2019-03-19T11:43:43.956Z,4.80
2019-03-19T11:44:23.055Z,4.90
2019-03-19T11:45:23.467Z,5.30
2019-03-19T11:46:21.974Z,5.50
2019-03-19T11:47:25.000Z,4.40
2019-03-19T11:48:22.282Z,4.60
2019-03-19T11:49:22.455Z,5.20
2019-03-19T11:50:22.475Z,4.30
2019-03-19T11:51:42.861Z,3.90
2019-03-19T11:52:24.123Z,6.30
2019-03-19T11:53:44.923Z,6.60
2019-03-19T11:54:25.927Z,4.70
2019-03-19T11:55:25.934Z,4.10
2019-03-19T11:56:24.910Z,5.80
2019-03-19T11:57:45.986Z,5.50
2019-03-19T11:58:25.999Z,3.10
2019-03-19T12:03:15.434Z,4.30
2019-03-19T12:03:42.653Z,4.10
2019-03-19T12:04:44.833Z,5.30
2019-03-19T12:05:51.819Z,5.70
2019-03-19T12:07:11.919Z,5.90
2019-03-19T12:07:46.239Z,5.40
2019-03-19T12:10:29.506Z,6.90
2019-03-19T12:11:25.050Z,5.60
2019-03-19T12:31:06.844Z,4.80
2019-03-19T12:31:59.347Z,5.90
2019-03-19T12:32:57.776Z,6.00
2019-03-19T12:33:57.759Z,7.20
2019-03-19T12:35:02.368Z,4.10
2019-03-19T12:36:03.311Z,6.40
2019-03-19T12:37:00.322Z,6.50
2019-03-19T12:37:58.309Z,5.20
2019-03-19T12:39:00.830Z,8.80
2019-03-19T12:40:01.763Z,8.00
2019-03-19T12:40:59.355Z,5.70
2019-03-19T12:42:22.322Z,7.90
2019-03-19T12:43:00.314Z,6.70
2019-03-19T12:44:05.797Z,5.70
2019-03-19T12:45:05.818Z,6.30
2019-03-19T12:46:00.248Z,4.90
2019-03-19T12:46:59.785Z,5.40
2019-03-19T12:48:01.599Z,7.80
2019-03-19T12:49:01.261Z,4.90
2019-03-19T12:50:00.831Z,5.20
2019-03-19T12:50:59.759Z,6.40
2019-03-19T12:52:00.369Z,4.90
2019-03-19T12:53:00.595Z,4.80
2019-03-19T12:54:07.362Z,5.40
2019-03-19T12:56:46.290Z,5.20
2019-03-19T12:57:36.697Z,5.40
2019-03-19T12:58:34.202Z,6.00
2019-03-19T12:59:35.128Z,5.30
2019-03-19T13:00:37.151Z,5.10
2019-03-19T13:01:34.931Z,5.60
2019-03-19T13:02:34.668Z,5.60
2019-03-19T13:03:40.277Z,5.40
2019-03-19T13:04:35.189Z,6.50
2019-03-19T13:05:36.192Z,5.40
2019-03-19T13:06:49.691Z,5.10
2019-03-19T13:07:35.769Z,5.80
2019-03-19T13:08:51.633Z,6.50
2019-03-19T13:09:36.180Z,3.80
2019-03-19T13:10:36.226Z,4.10
2019-03-19T13:11:36.231Z,4.90
2019-03-19T13:12:36.763Z,6.50
2019-03-19T13:13:35.092Z,3.80
2019-03-19T13:14:37.892Z,5.10
2019-03-19T13:15:42.173Z,4.90
2019-03-19T13:16:36.882Z,4.60
2019-03-19T13:17:49.124Z,4.50
2019-03-19T13:18:39.698Z,5.40
2019-03-19T13:19:38.633Z,5.20
2019-03-19T13:20:44.228Z,4.80
2019-03-19T13:22:00.125Z,6.80
2019-03-19T13:22:38.131Z,6.50
2019-03-19T13:23:52.721Z,4.80
2019-03-19T13:24:38.723Z,4.50
2019-03-19T13:25:39.402Z,4.70
2019-03-19T13:26:39.428Z,4.20
2019-03-19T13:27:43.479Z,3.60
2019-03-19T13:28:38.809Z,7.40
2019-03-19T13:29:53.739Z,5.30
2019-03-19T13:32:15.017Z,5.90
2019-03-19T13:33:12.278Z,5.30
2019-03-19T13:34:14.594Z,3.90
2019-03-19T13:35:14.512Z,5.00
2019-03-19T13:36:13.950Z,7.00
2019-03-19T13:37:14.121Z,6.20
2019-03-19T13:38:14.762Z,6.70
2019-03-19T13:39:13.189Z,5.80
2019-03-19T13:40:14.261Z,5.40
2019-03-19T13:41:14.291Z,6.30
2019-03-19T13:42:13.267Z,5.50
2019-03-19T13:43:18.772Z,5.60
2019-03-19T13:44:13.765Z,4.70
2019-03-19T13:45:14.783Z,6.30
2019-03-19T13:46:27.771Z,5.60
2019-03-19T13:47:12.350Z,6.60
2019-03-19T13:48:17.264Z,4.70